sensor_id;sensor_type;location;lat;lon;timestamp;P1;durP1;ratioP1;P2;durP2;ratioP2
31298;SDS011;17927;52.350;13.402;2023-03-20T00:02:09;4.65;;;3.85;;
31298;SDS011;17927;52.350;13.402;2023-03-20T00:04:42;4.00;;;3.70;;
31298;SDS011;17927;52.350;13.402;2023-03-20T00:07:07;3.78;;;3.22;;
31298;SDS011;17927;52.350;13.402;2023-03-20T00:09:36;5.07;;;3.65;;
31298;SDS011;17927;52.350;13.402;2023-03-20T00:12:01;5.00;;;4.20;;
31298;SDS011;17927;52.350;13.402;2023-03-20T00:14:27;4.22;;;3.60;;
31298;SDS011;17927;52.350;13.402;2023-03-20T00:16:52;3.70;;;3.40;;
31298;SDS011;17927;52.350;13.402;2023-03-20T00:19:18;5.45;;;4.35;;
31298;SDS011;17927;52.350;13.402;2023-03-20T00:21:47;5.07;;;3.55;;
31298;SDS011;17927;52.350;13.402;2023-03-20T00:24:13;4.78;;;3.67;;
31298;SDS011;17927;52.350;13.402;2023-03-20T00:26:40;4.30;;;3.90;;
31298;SDS011;17927;52.350;13.402;2023-03-20T00:29:06;5.20;;;4.70;;
31298;SDS011;17927;52.350;13.402;2023-03-20T00:31:43;7.90;;;4.00;;
31298;SDS011;17927;52.350;13.402;2023-03-20T00:34:11;5.65;;;4.07;;
31298;SDS011;17927;52.350;13.402;2023-03-20T00:36:38;9.45;;;3.75;;
31298;SDS011;17927;52.350;13.402;2023-03-20T00:39:03;4.30;;;3.40;;
31298;SDS011;17927;52.350;13.402;2023-03-20T00:41:50;7.45;;;3.47;;
31298;SDS011;17927;52.350;13.402;2023-03-20T00:44:18;4.40;;;4.00;;
31298;SDS011;17927;52.350;13.402;2023-03-20T00:46:51;4.90;;;4.03;;
31298;SDS011;17927;52.350;13.402;2023-03-20T00:49:23;3.75;;;3.42;;
31298;SDS011;17927;52.350;13.402;2023-03-20T00:51:51;6.78;;;3.75;;
31298;SDS011;17927;52.350;13.402;2023-03-20T00:54:17;5.28;;;3.85;;
31298;SDS011;17927;52.350;13.402;2023-03-20T00:56:48;3.72;;;3.50;;
31298;SDS011;17927;52.350;13.402;2023-03-20T00:59:19;7.70;;;3.70;;
31298;SDS011;17927;52.350;13.402;2023-03-20T01:01:48;4.55;;;4.15;;
31298;SDS011;17927;52.350;13.402;2023-03-20T01:04:15;5.90;;;4.20;;
31298;SDS011;17927;52.350;13.402;2023-03-20T01:06:42;5.78;;;4.28;;
31298;SDS011;17927;52.350;13.402;2023-03-20T01:09:08;6.95;;;4.15;;
31298;SDS011;17927;52.350;13.402;2023-03-20T01:11:33;7.18;;;4.65;;
31298;SDS011;17927;52.350;13.402;2023-03-20T01:13:59;6.10;;;3.70;;
31298;SDS011;17927;52.350;13.402;2023-03-20T01:16:26;5.25;;;4.00;;
31298;SDS011;17927;52.350;13.402;2023-03-20T01:18:51;5.00;;;4.50;;
31298;SDS011;17927;52.350;13.402;2023-03-20T01:21:17;5.72;;;4.20;;
31298;SDS011;17927;52.350;13.402;2023-03-20T01:23:43;6.38;;;5.13;;
31298;SDS011;17927;52.350;13.402;2023-03-20T01:26:23;5.32;;;4.70;;
31298;SDS011;17927;52.350;13.402;2023-03-20T01:28:56;6.03;;;4.70;;
31298;SDS011;17927;52.350;13.402;2023-03-20T01:31:21;5.53;;;4.72;;
31298;SDS011;17927;52.350;13.402;2023-03-20T01:33:46;8.60;;;4.78;;
31298;SDS011;17927;52.350;13.402;2023-03-20T01:36:12;5.35;;;4.85;;
31298;SDS011;17927;52.350;13.402;2023-03-20T01:38:39;7.38;;;4.80;;
31298;SDS011;17927;52.350;13.402;2023-03-20T01:41:12;5.75;;;5.18;;
31298;SDS011;17927;52.350;13.402;2023-03-20T01:43:42;5.35;;;4.78;;
31298;SDS011;17927;52.350;13.402;2023-03-20T01:46:21;5.72;;;5.10;;
31298;SDS011;17927;52.350;13.402;2023-03-20T01:51:14;5.75;;;5.13;;
31298;SDS011;17927;52.350;13.402;2023-03-20T01:53:42;6.10;;;4.95;;
31298;SDS011;17927;52.350;13.402;2023-03-20T01:56:11;7.13;;;5.45;;
31298;SDS011;17927;52.350;13.402;2023-03-20T01:58:40;6.95;;;4.68;;
31298;SDS011;17927;52.350;13.402;2023-03-20T02:01:09;5.18;;;4.60;;
31298;SDS011;17927;52.350;13.402;2023-03-20T02:03:37;5.38;;;4.97;;
31298;SDS011;17927;52.350;13.402;2023-03-20T02:06:03;5.18;;;4.68;;
31298;SDS011;17927;52.350;13.402;2023-03-20T02:08:30;5.38;;;4.90;;
31298;SDS011;17927;52.350;13.402;2023-03-20T02:11:00;6.20;;;4.60;;
31298;SDS011;17927;52.350;13.402;2023-03-20T02:13:26;8.38;;;5.30;;
31298;SDS011;17927;52.350;13.402;2023-03-20T02:18:19;6.97;;;5.82;;
31298;SDS011;17927;52.350;13.402;2023-03-20T02:20:49;8.55;;;6.03;;
31298;SDS011;17927;52.350;13.402;2023-03-20T02:32:32;6.07;;;5.40;;
31298;SDS011;17927;52.350;13.402;2023-03-20T02:38:01;5.90;;;5.50;;
31298;SDS011;17927;52.350;13.402;2023-03-20T02:40:46;5.75;;;5.25;;
31298;SDS011;17927;52.350;13.402;2023-03-20T02:45:58;5.97;;;5.38;;
31298;SDS011;17927;52.350;13.402;2023-03-20T02:48:52;9.10;;;5.18;;
31298;SDS011;17927;52.350;13.402;2023-03-20T02:51:21;5.85;;;5.10;;
31298;SDS011;17927;52.350;13.402;2023-03-20T02:54:00;6.28;;;5.68;;
31298;SDS011;17927;52.350;13.402;2023-03-20T02:59:21;7.32;;;5.43;;
31298;SDS011;17927;52.350;13.402;2023-03-20T03:02:27;7.88;;;5.43;;
31298;SDS011;17927;52.350;13.402;2023-03-20T03:04:49;6.63;;;4.45;;
31298;SDS011;17927;52.350;13.402;2023-03-20T03:07:18;5.88;;;5.28;;
31298;SDS011;17927;52.350;13.402;2023-03-20T03:09:49;9.75;;;5.32;;
31298;SDS011;17927;52.350;13.402;2023-03-20T03:12:22;4.90;;;4.50;;
31298;SDS011;17927;52.350;13.402;2023-03-20T03:14:52;4.88;;;4.47;;
31298;SDS011;17927;52.350;13.402;2023-03-20T03:17:22;5.03;;;4.10;;
31298;SDS011;17927;52.350;13.402;2023-03-20T03:19:53;5.75;;;4.93;;
31298;SDS011;17927;52.350;13.402;2023-03-20T03:22:24;7.65;;;4.63;;
31298;SDS011;17927;52.350;13.402;2023-03-20T03:24:51;5.80;;;5.22;;
31298;SDS011;17927;52.350;13.402;2023-03-20T03:27:28;8.35;;;4.65;;
31298;SDS011;17927;52.350;13.402;2023-03-20T03:30:01;4.63;;;4.25;;
31298;SDS011;17927;52.350;13.402;2023-03-20T03:32:32;9.02;;;4.38;;
31298;SDS011;17927;52.350;13.402;2023-03-20T03:35:00;4.53;;;4.20;;
31298;SDS011;17927;52.350;13.402;2023-03-20T03:37:47;4.10;;;3.65;;
31298;SDS011;17927;52.350;13.402;2023-03-20T03:43:02;3.53;;;3.30;;
31298;SDS011;17927;52.350;13.402;2023-03-20T03:46:16;4.47;;;4.07;;
31298;SDS011;17927;52.350;13.402;2023-03-20T03:48:47;4.22;;;3.80;;
31298;SDS011;17927;52.350;13.402;2023-03-20T03:51:18;7.38;;;3.78;;
31298;SDS011;17927;52.350;13.402;2023-03-20T03:53:48;7.05;;;3.92;;
31298;SDS011;17927;52.350;13.402;2023-03-20T03:56:19;3.85;;;3.58;;
31298;SDS011;17927;52.350;13.402;2023-03-20T03:58:48;3.45;;;3.25;;
31298;SDS011;17927;52.350;13.402;2023-03-20T04:01:18;4.63;;;3.97;;
31298;SDS011;17927;52.350;13.402;2023-03-20T04:03:48;5.03;;;4.13;;
31298;SDS011;17927;52.350;13.402;2023-03-20T04:06:16;4.15;;;3.75;;
31298;SDS011;17927;52.350;13.402;2023-03-20T04:08:42;5.03;;;3.78;;
31298;SDS011;17927;52.350;13.402;2023-03-20T04:11:17;5.47;;;4.00;;
31298;SDS011;17927;52.350;13.402;2023-03-20T04:13:45;6.85;;;3.65;;
31298;SDS011;17927;52.350;13.402;2023-03-20T04:16:12;4.05;;;3.75;;
31298;SDS011;17927;52.350;13.402;2023-03-20T04:18:38;3.90;;;3.35;;
31298;SDS011;17927;52.350;13.402;2023-03-20T04:21:03;4.13;;;3.78;;
31298;SDS011;17927;52.350;13.402;2023-03-20T04:23:30;4.85;;;4.35;;
31298;SDS011;17927;52.350;13.402;2023-03-20T04:25:55;5.18;;;4.18;;
31298;SDS011;17927;52.350;13.402;2023-03-20T04:28:20;6.18;;;4.18;;
31298;SDS011;17927;52.350;13.402;2023-03-20T04:30:51;4.75;;;3.60;;
31298;SDS011;17927;52.350;13.402;2023-03-20T04:33:17;5.40;;;4.10;;
31298;SDS011;17927;52.350;13.402;2023-03-20T04:35:42;5.03;;;4.45;;
31298;SDS011;17927;52.350;13.402;2023-03-20T04:38:08;7.07;;;4.35;;
31298;SDS011;17927;52.350;13.402;2023-03-20T04:40:33;4.18;;;3.88;;
31298;SDS011;17927;52.350;13.402;2023-03-20T04:42:58;5.07;;;4.38;;
31298;SDS011;17927;52.350;13.402;2023-03-20T04:45:23;5.07;;;4.20;;
31298;SDS011;17927;52.350;13.402;2023-03-20T04:47:49;4.80;;;4.38;;
31298;SDS011;17927;52.350;13.402;2023-03-20T04:50:14;5.00;;;4.60;;
31298;SDS011;17927;52.350;13.402;2023-03-20T04:52:40;4.30;;;3.92;;
31298;SDS011;17927;52.350;13.402;2023-03-20T04:55:05;5.05;;;4.63;;
31298;SDS011;17927;52.350;13.402;2023-03-20T04:57:31;5.35;;;4.30;;
31298;SDS011;17927;52.350;13.402;2023-03-20T04:59:57;6.43;;;5.82;;
31298;SDS011;17927;52.350;13.402;2023-03-20T05:02:22;6.88;;;4.93;;
31298;SDS011;17927;52.350;13.402;2023-03-20T05:04:47;5.07;;;4.65;;
31298;SDS011;17927;52.350;13.402;2023-03-20T05:07:12;8.32;;;5.35;;
31298;SDS011;17927;52.350;13.402;2023-03-20T05:09:38;6.68;;;5.30;;
31298;SDS011;17927;52.350;13.402;2023-03-20T05:12:03;8.00;;;6.13;;
31298;SDS011;17927;52.350;13.402;2023-03-20T05:14:28;8.25;;;5.30;;
31298;SDS011;17927;52.350;13.402;2023-03-20T05:16:54;8.20;;;5.90;;
31298;SDS011;17927;52.350;13.402;2023-03-20T05:19:19;6.50;;;6.00;;
31298;SDS011;17927;52.350;13.402;2023-03-20T05:21:44;6.50;;;5.68;;
31298;SDS011;17927;52.350;13.402;2023-03-20T05:24:10;9.48;;;7.13;;
31298;SDS011;17927;52.350;13.402;2023-03-20T05:26:35;7.82;;;5.70;;
31298;SDS011;17927;52.350;13.402;2023-03-20T05:29:00;8.05;;;6.55;;
31298;SDS011;17927;52.350;13.402;2023-03-20T05:31:25;13.20;;;8.75;;
31298;SDS011;17927;52.350;13.402;2023-03-20T05:33:51;8.60;;;6.68;;
31298;SDS011;17927;52.350;13.402;2023-03-20T05:36:16;8.80;;;7.43;;
31298;SDS011;17927;52.350;13.402;2023-03-20T05:38:41;9.57;;;6.65;;
31298;SDS011;17927;52.350;13.402;2023-03-20T05:41:06;8.48;;;6.78;;
31298;SDS011;17927;52.350;13.402;2023-03-20T05:43:32;7.25;;;6.47;;
31298;SDS011;17927;52.350;13.402;2023-03-20T05:45:57;8.57;;;6.32;;
31298;SDS011;17927;52.350;13.402;2023-03-20T05:48:22;7.38;;;6.68;;
31298;SDS011;17927;52.350;13.402;2023-03-20T05:50:48;8.13;;;6.38;;
31298;SDS011;17927;52.350;13.402;2023-03-20T05:53:13;7.95;;;6.72;;
31298;SDS011;17927;52.350;13.402;2023-03-20T05:55:38;8.82;;;6.55;;
31298;SDS011;17927;52.350;13.402;2023-03-20T05:58:05;7.53;;;6.80;;
31298;SDS011;17927;52.350;13.402;2023-03-20T06:00:30;7.93;;;6.25;;
31298;SDS011;17927;52.350;13.402;2023-03-20T06:02:56;7.07;;;6.47;;
31298;SDS011;17927;52.350;13.402;2023-03-20T06:05:21;8.05;;;6.57;;
31298;SDS011;17927;52.350;13.402;2023-03-20T06:07:46;10.60;;;6.72;;
31298;SDS011;17927;52.350;13.402;2023-03-20T06:10:12;7.72;;;6.72;;
31298;SDS011;17927;52.350;13.402;2023-03-20T06:12:37;12.65;;;6.93;;
31298;SDS011;17927;52.350;13.402;2023-03-20T06:15:03;9.00;;;6.22;;
31298;SDS011;17927;52.350;13.402;2023-03-20T06:17:28;8.30;;;5.75;;
31298;SDS011;17927;52.350;13.402;2023-03-20T06:19:53;11.35;;;6.60;;
31298;SDS011;17927;52.350;13.402;2023-03-20T06:22:19;8.57;;;7.03;;
31298;SDS011;17927;52.350;13.402;2023-03-20T06:24:44;9.30;;;6.50;;
31298;SDS011;17927;52.350;13.402;2023-03-20T06:27:10;9.43;;;6.47;;
31298;SDS011;17927;52.350;13.402;2023-03-20T06:29:35;10.25;;;7.40;;
31298;SDS011;17927;52.350;13.402;2023-03-20T06:32:00;10.40;;;7.32;;
31298;SDS011;17927;52.350;13.402;2023-03-20T06:34:26;10.40;;;7.75;;
31298;SDS011;17927;52.350;13.402;2023-03-20T06:36:51;11.80;;;8.38;;
31298;SDS011;17927;52.350;13.402;2023-03-20T06:39:17;11.63;;;8.40;;
31298;SDS011;17927;52.350;13.402;2023-03-20T06:41:42;10.95;;;9.80;;
31298;SDS011;17927;52.350;13.402;2023-03-20T06:44:07;14.68;;;10.10;;
31298;SDS011;17927;52.350;13.402;2023-03-20T06:46:32;13.27;;;10.45;;
31298;SDS011;17927;52.350;13.402;2023-03-20T06:48:58;14.82;;;11.73;;
31298;SDS011;17927;52.350;13.402;2023-03-20T06:51:23;15.73;;;12.35;;
31298;SDS011;17927;52.350;13.402;2023-03-20T06:53:48;14.07;;;11.45;;
31298;SDS011;17927;52.350;13.402;2023-03-20T06:56:13;14.90;;;12.27;;
31298;SDS011;17927;52.350;13.402;2023-03-20T06:58:39;16.65;;;12.35;;
31298;SDS011;17927;52.350;13.402;2023-03-20T07:01:08;16.48;;;12.50;;
31298;SDS011;17927;52.350;13.402;2023-03-20T07:03:37;15.73;;;12.43;;
31298;SDS011;17927;52.350;13.402;2023-03-20T07:06:04;14.55;;;11.65;;
31298;SDS011;17927;52.350;13.402;2023-03-20T07:08:30;14.65;;;12.75;;
31298;SDS011;17927;52.350;13.402;2023-03-20T07:10:55;16.02;;;12.40;;
31298;SDS011;17927;52.350;13.402;2023-03-20T07:13:21;18.92;;;14.48;;
31298;SDS011;17927;52.350;13.402;2023-03-20T07:15:46;17.55;;;13.88;;
31298;SDS011;17927;52.350;13.402;2023-03-20T07:18:11;21.40;;;15.43;;
31298;SDS011;17927;52.350;13.402;2023-03-20T07:20:36;21.40;;;17.15;;
31298;SDS011;17927;52.350;13.402;2023-03-20T07:23:02;20.25;;;17.20;;
31298;SDS011;17927;52.350;13.402;2023-03-20T07:25:27;23.27;;;17.05;;
31298;SDS011;17927;52.350;13.402;2023-03-20T07:27:52;23.25;;;17.73;;
31298;SDS011;17927;52.350;13.402;2023-03-20T07:30:18;26.00;;;18.50;;
31298;SDS011;17927;52.350;13.402;2023-03-20T07:32:44;24.45;;;19.15;;
31298;SDS011;17927;52.350;13.402;2023-03-20T07:35:10;24.58;;;19.20;;
31298;SDS011;17927;52.350;13.402;2023-03-20T07:37:36;25.33;;;19.10;;
31298;SDS011;17927;52.350;13.402;2023-03-20T07:40:01;25.88;;;18.38;;
31298;SDS011;17927;52.350;13.402;2023-03-20T07:42:27;26.10;;;18.55;;
31298;SDS011;17927;52.350;13.402;2023-03-20T07:44:52;24.95;;;18.58;;
31298;SDS011;17927;52.350;13.402;2023-03-20T07:47:17;24.98;;;19.13;;
31298;SDS011;17927;52.350;13.402;2023-03-20T07:49:43;26.05;;;19.33;;
31298;SDS011;17927;52.350;13.402;2023-03-20T07:52:08;25.88;;;18.63;;
31298;SDS011;17927;52.350;13.402;2023-03-20T07:54:33;28.42;;;18.42;;
31298;SDS011;17927;52.350;13.402;2023-03-20T07:56:58;22.48;;;17.02;;
31298;SDS011;17927;52.350;13.402;2023-03-20T07:59:24;23.08;;;16.90;;
31298;SDS011;17927;52.350;13.402;2023-03-20T08:01:49;27.63;;;17.02;;
31298;SDS011;17927;52.350;13.402;2023-03-20T08:04:14;27.98;;;18.90;;
31298;SDS011;17927;52.350;13.402;2023-03-20T08:06:43;29.30;;;18.77;;
31298;SDS011;17927;52.350;13.402;2023-03-20T08:09:08;25.95;;;17.80;;
31298;SDS011;17927;52.350;13.402;2023-03-20T08:11:33;25.00;;;16.77;;
31298;SDS011;17927;52.350;13.402;2023-03-20T08:13:59;25.52;;;17.35;;
31298;SDS011;17927;52.350;13.402;2023-03-20T08:16:24;28.05;;;17.92;;
31298;SDS011;17927;52.350;13.402;2023-03-20T08:18:50;24.95;;;16.98;;
31298;SDS011;17927;52.350;13.402;2023-03-20T08:21:17;28.83;;;18.13;;
31298;SDS011;17927;52.350;13.402;2023-03-20T08:23:42;29.50;;;17.58;;
31298;SDS011;17927;52.350;13.402;2023-03-20T08:26:08;26.40;;;17.38;;
31298;SDS011;17927;52.350;13.402;2023-03-20T08:28:33;26.85;;;17.33;;
31298;SDS011;17927;52.350;13.402;2023-03-20T08:30:58;27.40;;;17.02;;
31298;SDS011;17927;52.350;13.402;2023-03-20T08:33:24;28.27;;;17.25;;
31298;SDS011;17927;52.350;13.402;2023-03-20T08:35:55;28.35;;;17.35;;
31298;SDS011;17927;52.350;13.402;2023-03-20T08:38:22;30.20;;;17.92;;
31298;SDS011;17927;52.350;13.402;2023-03-20T08:40:47;26.27;;;16.40;;
31298;SDS011;17927;52.350;13.402;2023-03-20T08:43:13;32.90;;;18.70;;
31298;SDS011;17927;52.350;13.402;2023-03-20T08:45:38;33.80;;;18.52;;
31298;SDS011;17927;52.350;13.402;2023-03-20T08:48:03;26.95;;;17.63;;
31298;SDS011;17927;52.350;13.402;2023-03-20T08:50:28;30.23;;;17.52;;
31298;SDS011;17927;52.350;13.402;2023-03-20T08:52:54;30.92;;;17.42;;
31298;SDS011;17927;52.350;13.402;2023-03-20T08:55:19;30.63;;;17.83;;
31298;SDS011;17927;52.350;13.402;2023-03-20T08:57:45;30.65;;;16.65;;
31298;SDS011;17927;52.350;13.402;2023-03-20T09:00:11;28.33;;;17.17;;
31298;SDS011;17927;52.350;13.402;2023-03-20T09:02:39;29.08;;;16.63;;
31298;SDS011;17927;52.350;13.402;2023-03-20T09:05:05;26.42;;;16.52;;
31298;SDS011;17927;52.350;13.402;2023-03-20T09:07:31;30.40;;;16.73;;
31298;SDS011;17927;52.350;13.402;2023-03-20T09:09:57;28.70;;;15.68;;
31298;SDS011;17927;52.350;13.402;2023-03-20T09:12:22;28.48;;;17.25;;
31298;SDS011;17927;52.350;13.402;2023-03-20T09:14:47;23.92;;;15.00;;
31298;SDS011;17927;52.350;13.402;2023-03-20T09:17:12;27.75;;;15.95;;
31298;SDS011;17927;52.350;13.402;2023-03-20T09:19:38;26.45;;;15.30;;
31298;SDS011;17927;52.350;13.402;2023-03-20T09:22:06;29.95;;;16.92;;
31298;SDS011;17927;52.350;13.402;2023-03-20T09:24:31;25.17;;;14.85;;
31298;SDS011;17927;52.350;13.402;2023-03-20T09:26:57;23.35;;;14.65;;
31298;SDS011;17927;52.350;13.402;2023-03-20T09:29:24;21.35;;;14.15;;
31298;SDS011;17927;52.350;13.402;2023-03-20T09:31:51;20.90;;;13.40;;
31298;SDS011;17927;52.350;13.402;2023-03-20T09:34:18;22.67;;;13.77;;
31298;SDS011;17927;52.350;13.402;2023-03-20T09:36:43;21.23;;;13.48;;
31298;SDS011;17927;52.350;13.402;2023-03-20T09:39:08;18.38;;;12.70;;
31298;SDS011;17927;52.350;13.402;2023-03-20T09:41:33;18.17;;;12.27;;
31298;SDS011;17927;52.350;13.402;2023-03-20T09:44:12;19.30;;;12.95;;
31298;SDS011;17927;52.350;13.402;2023-03-20T09:54:46;19.13;;;12.00;;
31298;SDS011;17927;52.350;13.402;2023-03-20T09:59:49;22.08;;;14.07;;
31298;SDS011;17927;52.350;13.402;2023-03-20T10:02:22;28.08;;;13.35;;
31298;SDS011;17927;52.350;13.402;2023-03-20T10:04:58;18.85;;;12.20;;
31298;SDS011;17927;52.350;13.402;2023-03-20T10:07:23;18.38;;;12.20;;
31298;SDS011;17927;52.350;13.402;2023-03-20T10:09:49;17.30;;;11.35;;
31298;SDS011;17927;52.350;13.402;2023-03-20T10:17:50;13.70;;;9.73;;
31298;SDS011;17927;52.350;13.402;2023-03-20T10:20:38;15.43;;;10.77;;
31298;SDS011;17927;52.350;13.402;2023-03-20T10:23:20;14.48;;;10.57;;
31298;SDS011;17927;52.350;13.402;2023-03-20T10:26:05;19.35;;;11.63;;
31298;SDS011;17927;52.350;13.402;2023-03-20T10:28:38;14.02;;;10.70;;
31298;SDS011;17927;52.350;13.402;2023-03-20T10:33:51;16.95;;;11.15;;
31298;SDS011;17927;52.350;13.402;2023-03-20T10:39:38;13.98;;;10.15;;
31298;SDS011;17927;52.350;13.402;2023-03-20T10:42:27;14.38;;;10.10;;
31298;SDS011;17927;52.350;13.402;2023-03-20T10:44:58;14.88;;;9.57;;
31298;SDS011;17927;52.350;13.402;2023-03-20T10:49:57;12.18;;;8.35;;
31298;SDS011;17927;52.350;13.402;2023-03-20T10:52:28;11.18;;;8.88;;
31298;SDS011;17927;52.350;13.402;2023-03-20T10:54:57;11.38;;;8.65;;
31298;SDS011;17927;52.350;13.402;2023-03-20T10:57:28;12.18;;;7.93;;
31298;SDS011;17927;52.350;13.402;2023-03-20T10:59:57;11.80;;;8.50;;
31298;SDS011;17927;52.350;13.402;2023-03-20T11:02:24;11.60;;;8.40;;
31298;SDS011;17927;52.350;13.402;2023-03-20T11:04:53;11.50;;;7.97;;
31298;SDS011;17927;52.350;13.402;2023-03-20T11:07:31;12.68;;;8.85;;
31298;SDS011;17927;52.350;13.402;2023-03-20T11:12:36;9.80;;;8.23;;
31298;SDS011;17927;52.350;13.402;2023-03-20T11:15:26;9.75;;;8.18;;
31298;SDS011;17927;52.350;13.402;2023-03-20T11:17:56;11.63;;;7.80;;
31298;SDS011;17927;52.350;13.402;2023-03-20T11:20:23;16.33;;;8.82;;
31298;SDS011;17927;52.350;13.402;2023-03-20T11:22:49;13.25;;;8.75;;
31298;SDS011;17927;52.350;13.402;2023-03-20T11:25:24;12.15;;;8.25;;
31298;SDS011;17927;52.350;13.402;2023-03-20T11:27:55;13.23;;;9.10;;
31298;SDS011;17927;52.350;13.402;2023-03-20T11:30:21;13.48;;;8.10;;
31298;SDS011;17927;52.350;13.402;2023-03-20T11:32:47;11.70;;;7.50;;
31298;SDS011;17927;52.350;13.402;2023-03-20T11:37:50;9.98;;;7.95;;
31298;SDS011;17927;52.350;13.402;2023-03-20T11:40:29;12.25;;;8.40;;
31298;SDS011;17927;52.350;13.402;2023-03-20T11:45:24;10.80;;;7.93;;
31298;SDS011;17927;52.350;13.402;2023-03-20T11:47:50;12.25;;;7.82;;
31298;SDS011;17927;52.350;13.402;2023-03-20T11:52:56;11.02;;;8.30;;
31298;SDS011;17927;52.350;13.402;2023-03-20T11:55:24;14.02;;;8.77;;
31298;SDS011;17927;52.350;13.402;2023-03-20T11:57:56;11.07;;;7.78;;
31298;SDS011;17927;52.350;13.402;2023-03-20T12:00:23;14.67;;;8.37;;
31298;SDS011;17927;52.350;13.402;2023-03-20T12:02:52;13.18;;;8.90;;
31298;SDS011;17927;52.350;13.402;2023-03-20T12:07:51;13.88;;;8.70;;
31298;SDS011;17927;52.350;13.402;2023-03-20T12:10:21;9.10;;;8.18;;
31298;SDS011;17927;52.350;13.402;2023-03-20T12:13:12;10.70;;;8.03;;
31298;SDS011;17927;52.350;13.402;2023-03-20T12:15:43;12.52;;;8.10;;
31298;SDS011;17927;52.350;13.402;2023-03-20T12:18:18;13.02;;;7.75;;
31298;SDS011;17927;52.350;13.402;2023-03-20T12:23:46;14.68;;;8.55;;
31298;SDS011;17927;52.350;13.402;2023-03-20T12:28:49;13.50;;;8.63;;
31298;SDS011;17927;52.350;13.402;2023-03-20T12:34:09;11.32;;;8.73;;
31298;SDS011;17927;52.350;13.402;2023-03-20T12:36:45;12.63;;;9.40;;
31298;SDS011;17927;52.350;13.402;2023-03-20T12:39:14;13.32;;;8.70;;
31298;SDS011;17927;52.350;13.402;2023-03-20T12:41:48;13.38;;;9.43;;
31298;SDS011;17927;52.350;13.402;2023-03-20T12:49:56;9.55;;;8.02;;
31298;SDS011;17927;52.350;13.402;2023-03-20T12:52:37;11.30;;;8.07;;
31298;SDS011;17927;52.350;13.402;2023-03-20T13:00:53;15.20;;;9.77;;
31298;SDS011;17927;52.350;13.402;2023-03-20T13:03:40;11.98;;;9.00;;
31298;SDS011;17927;52.350;13.402;2023-03-20T13:17:14;12.85;;;9.43;;
31298;SDS011;17927;52.350;13.402;2023-03-20T13:19:52;14.95;;;10.10;;
31298;SDS011;17927;52.350;13.402;2023-03-20T13:22:35;16.75;;;10.50;;
31298;SDS011;17927;52.350;13.402;2023-03-20T13:25:21;11.98;;;9.10;;
31298;SDS011;17927;52.350;13.402;2023-03-20T13:31:19;13.90;;;10.52;;
31298;SDS011;17927;52.350;13.402;2023-03-20T13:34:10;14.18;;;9.75;;
31298;SDS011;17927;52.350;13.402;2023-03-20T13:37:07;16.98;;;10.23;;
31298;SDS011;17927;52.350;13.402;2023-03-20T13:39:39;15.23;;;10.38;;
31298;SDS011;17927;52.350;13.402;2023-03-20T13:42:10;15.23;;;10.20;;
31298;SDS011;17927;52.350;13.402;2023-03-20T13:44:38;17.08;;;11.48;;
31298;SDS011;17927;52.350;13.402;2023-03-20T13:47:16;16.20;;;10.80;;
31298;SDS011;17927;52.350;13.402;2023-03-20T13:50:08;17.77;;;11.18;;
31298;SDS011;17927;52.350;13.402;2023-03-20T13:52:48;16.33;;;10.68;;
31298;SDS011;17927;52.350;13.402;2023-03-20T13:55:44;16.58;;;11.40;;
31298;SDS011;17927;52.350;13.402;2023-03-20T13:58:53;17.58;;;11.55;;
31298;SDS011;17927;52.350;13.402;2023-03-20T14:04:30;17.40;;;11.20;;
31298;SDS011;17927;52.350;13.402;2023-03-20T14:06:57;17.85;;;12.02;;
31298;SDS011;17927;52.350;13.402;2023-03-20T14:09:24;17.17;;;10.93;;
31298;SDS011;17927;52.350;13.402;2023-03-20T14:11:53;16.07;;;11.47;;
31298;SDS011;17927;52.350;13.402;2023-03-20T14:14:24;17.63;;;12.05;;
31298;SDS011;17927;52.350;13.402;2023-03-20T14:17:05;19.27;;;11.52;;
31298;SDS011;17927;52.350;13.402;2023-03-20T14:19:34;17.92;;;12.00;;
31298;SDS011;17927;52.350;13.402;2023-03-20T14:22:02;18.35;;;11.50;;
31298;SDS011;17927;52.350;13.402;2023-03-20T14:24:27;20.85;;;13.40;;
31298;SDS011;17927;52.350;13.402;2023-03-20T14:26:58;19.23;;;13.07;;
31298;SDS011;17927;52.350;13.402;2023-03-20T14:31:52;18.88;;;12.88;;
31298;SDS011;17927;52.350;13.402;2023-03-20T14:34:27;23.55;;;13.25;;
31298;SDS011;17927;52.350;13.402;2023-03-20T14:37:25;25.55;;;14.02;;
31298;SDS011;17927;52.350;13.402;2023-03-20T14:40:10;22.98;;;13.57;;
31298;SDS011;17927;52.350;13.402;2023-03-20T14:42:46;20.45;;;12.50;;
31298;SDS011;17927;52.350;13.402;2023-03-20T14:45:25;25.83;;;13.82;;
31298;SDS011;17927;52.350;13.402;2023-03-20T14:47:57;18.83;;;12.10;;
31298;SDS011;17927;52.350;13.402;2023-03-20T14:51:05;25.83;;;14.05;;
31298;SDS011;17927;52.350;13.402;2023-03-20T14:53:38;22.25;;;13.27;;
31298;SDS011;17927;52.350;13.402;2023-03-20T14:58:35;21.77;;;14.05;;
31298;SDS011;17927;52.350;13.402;2023-03-20T15:06:48;22.30;;;14.60;;
31298;SDS011;17927;52.350;13.402;2023-03-20T15:09:18;22.52;;;13.20;;
31298;SDS011;17927;52.350;13.402;2023-03-20T15:11:46;23.75;;;13.98;;
31298;SDS011;17927;52.350;13.402;2023-03-20T15:14:14;21.10;;;13.27;;
31298;SDS011;17927;52.350;13.402;2023-03-20T15:16:44;20.75;;;13.55;;
31298;SDS011;17927;52.350;13.402;2023-03-20T15:19:18;20.17;;;13.80;;
31298;SDS011;17927;52.350;13.402;2023-03-20T15:21:46;18.13;;;12.50;;
31298;SDS011;17927;52.350;13.402;2023-03-20T15:24:16;21.35;;;13.85;;
31298;SDS011;17927;52.350;13.402;2023-03-20T15:26:44;21.08;;;13.98;;
31298;SDS011;17927;52.350;13.402;2023-03-20T15:29:11;21.70;;;13.68;;
31298;SDS011;17927;52.350;13.402;2023-03-20T15:31:41;19.58;;;11.75;;
31298;SDS011;17927;52.350;13.402;2023-03-20T15:34:20;19.65;;;12.65;;
31298;SDS011;17927;52.350;13.402;2023-03-20T15:36:47;24.33;;;14.13;;
31298;SDS011;17927;52.350;13.402;2023-03-20T15:39:18;24.67;;;14.32;;
31298;SDS011;17927;52.350;13.402;2023-03-20T15:41:49;21.55;;;12.85;;
31298;SDS011;17927;52.350;13.402;2023-03-20T15:44:21;21.15;;;13.38;;
31298;SDS011;17927;52.350;13.402;2023-03-20T15:46:58;18.98;;;13.32;;
31298;SDS011;17927;52.350;13.402;2023-03-20T15:49:25;24.85;;;13.55;;
31298;SDS011;17927;52.350;13.402;2023-03-20T15:51:51;19.50;;;12.18;;
31298;SDS011;17927;52.350;13.402;2023-03-20T15:54:20;21.92;;;12.68;;
31298;SDS011;17927;52.350;13.402;2023-03-20T15:56:48;20.08;;;13.23;;
31298;SDS011;17927;52.350;13.402;2023-03-20T15:59:16;17.52;;;11.25;;
31298;SDS011;17927;52.350;13.402;2023-03-20T16:01:44;15.27;;;11.73;;
31298;SDS011;17927;52.350;13.402;2023-03-20T16:04:14;18.50;;;11.90;;
31298;SDS011;17927;52.350;13.402;2023-03-20T16:06:45;18.90;;;12.35;;
31298;SDS011;17927;52.350;13.402;2023-03-20T16:09:13;21.90;;;11.93;;
31298;SDS011;17927;52.350;13.402;2023-03-20T16:11:42;19.95;;;12.32;;
31298;SDS011;17927;52.350;13.402;2023-03-20T16:14:11;18.40;;;12.10;;
31298;SDS011;17927;52.350;13.402;2023-03-20T16:16:40;18.80;;;11.55;;
31298;SDS011;17927;52.350;13.402;2023-03-20T16:19:05;18.20;;;11.73;;
31298;SDS011;17927;52.350;13.402;2023-03-20T16:21:32;21.83;;;12.68;;
31298;SDS011;17927;52.350;13.402;2023-03-20T16:24:03;17.80;;;11.73;;
31298;SDS011;17927;52.350;13.402;2023-03-20T16:26:34;18.58;;;12.65;;